sensor_id;sensor_type;location;lat;lon;timestamp;pressure;altitude;pressure_sealevel;temperature;humidity
48790;BME280;41718;51.980;5.734;2023-01-29T00:01:21;102874.19;;;0.67;100.00
48790;BME280;41718;51.980;5.734;2023-01-29T00:06:24;102870.13;;;0.69;100.00
48790;BME280;41718;51.980;5.734;2023-01-29T00:11:26;102875.72;;;0.65;100.00
48790;BME280;41718;51.980;5.734;2023-01-29T00:16:28;102875.25;;;0.69;100.00
48790;BME280;41718;51.980;5.734;2023-01-29T00:21:30;102866.31;;;0.64;100.00
48790;BME280;41718;51.980;5.734;2023-01-29T00:26:32;102850.25;;;0.65;100.00
48790;BME280;41718;51.980;5.734;2023-01-29T00:31:34;102842.91;;;0.68;100.00
48790;BME280;41718;51.980;5.734;2023-01-29T00:36:35;102837.53;;;0.65;100.00
48790;BME280;41718;51.980;5.734;2023-01-29T00:41:40;102829.88;;;0.65;100.00
48790;BME280;41718;51.980;5.734;2023-01-29T00:47:00;102820.59;;;0.66;100.00
48790;BME280;41718;51.980;5.734;2023-01-29T00:52:02;102825.81;;;0.67;100.00
48790;BME280;41718;51.980;5.734;2023-01-29T00:57:24;102830.16;;;0.68;100.00
48790;BME280;41718;51.980;5.734;2023-01-29T01:02:26;102839.06;;;0.63;100.00
48790;BME280;41718;51.980;5.734;2023-01-29T01:07:49;102836.09;;;0.59;100.00
48790;BME280;41718;51.980;5.734;2023-01-29T01:12:57;102835.69;;;0.54;100.00
48790;BME280;41718;51.980;5.734;2023-01-29T01:17:59;102832.25;;;0.53;100.00
48790;BME280;41718;51.980;5.734;2023-01-29T01:23:02;102829.34;;;0.59;100.00
48790;BME280;41718;51.980;5.734;2023-01-29T01:28:03;102823.25;;;0.57;100.00
48790;BME280;41718;51.980;5.734;2023-01-29T01:33:05;102808.97;;;0.59;100.00
48790;BME280;41718;51.980;5.734;2023-01-29T01:38:06;102816.75;;;0.61;100.00
48790;BME280;41718;51.980;5.734;2023-01-29T01:43:08;102819.16;;;0.59;100.00
48790;BME280;41718;51.980;5.734;2023-01-29T01:48:14;102823.97;;;0.56;100.00
48790;BME280;41718;51.980;5.734;2023-01-29T01:53:24;102824.50;;;0.52;100.00
48790;BME280;41718;51.980;5.734;2023-01-29T01:58:32;102827.78;;;0.51;100.00
48790;BME280;41718;51.980;5.734;2023-01-29T02:03:42;102830.44;;;0.42;100.00
48790;BME280;41718;51.980;5.734;2023-01-29T02:09:08;102833.19;;;0.35;100.00
48790;BME280;41718;51.980;5.734;2023-01-29T02:14:30;102841.19;;;0.30;100.00
48790;BME280;41718;51.980;5.734;2023-01-29T02:19:44;102826.41;;;0.25;100.00
48790;BME280;41718;51.980;5.734;2023-01-29T02:30:22;102817.50;;;0.31;100.00
48790;BME280;41718;51.980;5.734;2023-01-29T02:35:34;102819.28;;;0.32;100.00
48790;BME280;41718;51.980;5.734;2023-01-29T02:40:42;102811.78;;;0.33;100.00
48790;BME280;41718;51.980;5.734;2023-01-29T02:45:49;102806.16;;;0.27;100.00
48790;BME280;41718;51.980;5.734;2023-01-29T02:51:04;102823.16;;;0.37;100.00
48790;BME280;41718;51.980;5.734;2023-01-29T02:56:12;102831.25;;;0.33;100.00
48790;BME280;41718;51.980;5.734;2023-01-29T03:01:20;102832.91;;;0.32;100.00
48790;BME280;41718;51.980;5.734;2023-01-29T03:06:31;102822.47;;;0.29;100.00
48790;BME280;41718;51.980;5.734;2023-01-29T03:11:38;102823.97;;;0.27;100.00
48790;BME280;41718;51.980;5.734;2023-01-29T03:16:46;102819.53;;;0.24;100.00
48790;BME280;41718;51.980;5.734;2023-01-29T03:21:53;102816.22;;;0.25;100.00
48790;BME280;41718;51.980;5.734;2023-01-29T03:27:01;102803.00;;;0.30;100.00
48790;BME280;41718;51.980;5.734;2023-01-29T03:32:24;102798.81;;;0.30;100.00
48790;BME280;41718;51.980;5.734;2023-01-29T03:37:34;102789.28;;;0.38;100.00
48790;BME280;41718;51.980;5.734;2023-01-29T03:47:50;102774.66;;;0.35;100.00
48790;BME280;41718;51.980;5.734;2023-01-29T03:53:17;102769.34;;;0.42;100.00
48790;BME280;41718;51.980;5.734;2023-01-29T03:58:31;102765.84;;;0.32;100.00
48790;BME280;41718;51.980;5.734;2023-01-29T04:03:41;102764.31;;;0.34;100.00
48790;BME280;41718;51.980;5.734;2023-01-29T04:08:47;102760.53;;;0.39;100.00
48790;BME280;41718;51.980;5.734;2023-01-29T04:13:51;102759.03;;;0.41;100.00
48790;BME280;41718;51.980;5.734;2023-01-29T04:18:53;102756.97;;;0.37;100.00
48790;BME280;41718;51.980;5.734;2023-01-29T04:23:55;102754.69;;;0.40;100.00
48790;BME280;41718;51.980;5.734;2023-01-29T04:34:24;102732.28;;;0.36;100.00
48790;BME280;41718;51.980;5.734;2023-01-29T04:39:53;102731.03;;;0.41;100.00
48790;BME280;41718;51.980;5.734;2023-01-29T04:50:31;102738.78;;;0.42;100.00
48790;BME280;41718;51.980;5.734;2023-01-29T04:55:49;102730.38;;;0.43;100.00
48790;BME280;41718;51.980;5.734;2023-01-29T05:00:53;102719.31;;;0.43;100.00
48790;BME280;41718;51.980;5.734;2023-01-29T05:05:56;102712.69;;;0.45;100.00
48790;BME280;41718;51.980;5.734;2023-01-29T05:10:59;102711.19;;;0.47;100.00
48790;BME280;41718;51.980;5.734;2023-01-29T05:16:10;102704.56;;;0.49;100.00
48790;BME280;41718;51.980;5.734;2023-01-29T05:21:14;102704.69;;;0.50;100.00
48790;BME280;41718;51.980;5.734;2023-01-29T05:26:16;102702.28;;;0.52;100.00
48790;BME280;41718;51.980;5.734;2023-01-29T05:31:36;102712.59;;;0.53;100.00
48790;BME280;41718;51.980;5.734;2023-01-29T05:36:38;102713.00;;;0.58;100.00
48790;BME280;41718;51.980;5.734;2023-01-29T05:41:39;102717.31;;;0.59;100.00
48790;BME280;41718;51.980;5.734;2023-01-29T05:46:41;102724.84;;;0.58;100.00
48790;BME280;41718;51.980;5.734;2023-01-29T05:51:42;102731.44;;;0.56;100.00
48790;BME280;41718;51.980;5.734;2023-01-29T05:56:44;102735.03;;;0.58;100.00
48790;BME280;41718;51.980;5.734;2023-01-29T06:01:46;102723.03;;;0.57;100.00
48790;BME280;41718;51.980;5.734;2023-01-29T06:06:47;102709.81;;;0.61;100.00
48790;BME280;41718;51.980;5.734;2023-01-29T06:11:48;102689.44;;;0.61;100.00
48790;BME280;41718;51.980;5.734;2023-01-29T06:16:50;102685.63;;;0.66;100.00
48790;BME280;41718;51.980;5.734;2023-01-29T06:21:51;102688.94;;;0.65;100.00
48790;BME280;41718;51.980;5.734;2023-01-29T06:26:53;102685.63;;;0.76;100.00
48790;BME280;41718;51.980;5.734;2023-01-29T06:31:54;102683.09;;;0.76;100.00
48790;BME280;41718;51.980;5.734;2023-01-29T06:36:56;102675.31;;;0.74;100.00
48790;BME280;41718;51.980;5.734;2023-01-29T06:41:57;102671.25;;;0.76;100.00
48790;BME280;41718;51.980;5.734;2023-01-29T06:46:59;102677.63;;;0.82;100.00
48790;BME280;41718;51.980;5.734;2023-01-29T06:52:01;102667.66;;;0.85;100.00
48790;BME280;41718;51.980;5.734;2023-01-29T06:57:02;102687.69;;;0.80;100.00
48790;BME280;41718;51.980;5.734;2023-01-29T07:02:03;102693.53;;;0.79;100.00
48790;BME280;41718;51.980;5.734;2023-01-29T07:07:05;102680.78;;;0.79;100.00
48790;BME280;41718;51.980;5.734;2023-01-29T07:12:13;102675.97;;;0.82;100.00
48790;BME280;41718;51.980;5.734;2023-01-29T07:17:14;102680.69;;;0.88;100.00
48790;BME280;41718;51.980;5.734;2023-01-29T07:22:15;102679.28;;;0.91;100.00
48790;BME280;41718;51.980;5.734;2023-01-29T07:27:17;102677.09;;;0.96;100.00
48790;BME280;41718;51.980;5.734;2023-01-29T07:32:18;102672.66;;;0.93;100.00
48790;BME280;41718;51.980;5.734;2023-01-29T07:37:20;102667.06;;;0.97;100.00
48790;BME280;41718;51.980;5.734;2023-01-29T07:42:21;102678.38;;;1.01;100.00
48790;BME280;41718;51.980;5.734;2023-01-29T07:47:23;102678.63;;;1.04;100.00
48790;BME280;41718;51.980;5.734;2023-01-29T07:52:25;102668.84;;;1.09;100.00
48790;BME280;41718;51.980;5.734;2023-01-29T07:57:26;102667.41;;;1.12;100.00
48790;BME280;41718;51.980;5.734;2023-01-29T08:02:28;102646.78;;;1.09;100.00
48790;BME280;41718;51.980;5.734;2023-01-29T08:07:29;102637.97;;;1.16;100.00
48790;BME280;41718;51.980;5.734;2023-01-29T08:12:31;102630.94;;;1.23;100.00
48790;BME280;41718;51.980;5.734;2023-01-29T08:17:32;102627.78;;;1.26;100.00
48790;BME280;41718;51.980;5.734;2023-01-29T08:22:35;102650.06;;;1.28;100.00
48790;BME280;41718;51.980;5.734;2023-01-29T08:27:36;102640.91;;;1.30;100.00
48790;BME280;41718;51.980;5.734;2023-01-29T08:32:38;102625.19;;;1.36;100.00
48790;BME280;41718;51.980;5.734;2023-01-29T08:37:39;102627.88;;;1.38;100.00
48790;BME280;41718;51.980;5.734;2023-01-29T08:42:41;102611.91;;;1.40;100.00
48790;BME280;41718;51.980;5.734;2023-01-29T08:47:46;102607.84;;;1.42;100.00
48790;BME280;41718;51.980;5.734;2023-01-29T08:52:48;102597.88;;;1.45;100.00
48790;BME280;41718;51.980;5.734;2023-01-29T08:57:50;102588.94;;;1.50;100.00
48790;BME280;41718;51.980;5.734;2023-01-29T09:02:51;102597.84;;;1.55;100.00
48790;BME280;41718;51.980;5.734;2023-01-29T09:07:55;102603.31;;;1.60;100.00
48790;BME280;41718;51.980;5.734;2023-01-29T09:12:57;102597.44;;;1.61;100.00
48790;BME280;41718;51.980;5.734;2023-01-29T09:18:02;102605.59;;;1.67;100.00
48790;BME280;41718;51.980;5.734;2023-01-29T09:23:06;102604.28;;;1.72;100.00
48790;BME280;41718;51.980;5.734;2023-01-29T09:28:07;102601.84;;;1.74;100.00
48790;BME280;41718;51.980;5.734;2023-01-29T09:33:09;102601.06;;;1.75;100.00
48790;BME280;41718;51.980;5.734;2023-01-29T09:38:10;102600.44;;;1.77;100.00
48790;BME280;41718;51.980;5.734;2023-01-29T09:43:16;102599.00;;;1.81;100.00
48790;BME280;41718;51.980;5.734;2023-01-29T09:48:21;102594.16;;;1.84;100.00
48790;BME280;41718;51.980;5.734;2023-01-29T09:53:29;102596.81;;;1.85;100.00
48790;BME280;41718;51.980;5.734;2023-01-29T09:58:36;102595.28;;;1.88;100.00
48790;BME280;41718;51.980;5.734;2023-01-29T10:09:31;102578.13;;;1.97;100.00
48790;BME280;41718;51.980;5.734;2023-01-29T10:25:32;102587.75;;;2.11;100.00
48790;BME280;41718;51.980;5.734;2023-01-29T10:30:40;102591.84;;;2.09;100.00
48790;BME280;41718;51.980;5.734;2023-01-29T10:35:48;102585.97;;;2.10;100.00
48790;BME280;41718;51.980;5.734;2023-01-29T10:46:39;102573.53;;;2.15;100.00
48790;BME280;41718;51.980;5.734;2023-01-29T11:02:20;102532.00;;;2.27;100.00
48790;BME280;41718;51.980;5.734;2023-01-29T11:07:23;102525.31;;;2.29;100.00
48790;BME280;41718;51.980;5.734;2023-01-29T11:12:29;102512.78;;;2.32;100.00
48790;BME280;41718;51.980;5.734;2023-01-29T11:17:32;102507.91;;;2.35;100.00
48790;BME280;41718;51.980;5.734;2023-01-29T11:22:33;102499.16;;;2.44;100.00
48790;BME280;41718;51.980;5.734;2023-01-29T11:27:48;102489.59;;;2.41;100.00
48790;BME280;41718;51.980;5.734;2023-01-29T11:33:17;102479.50;;;2.43;100.00
48790;BME280;41718;51.980;5.734;2023-01-29T11:38:25;102473.75;;;2.45;100.00
48790;BME280;41718;51.980;5.734;2023-01-29T11:43:29;102467.19;;;2.49;100.00
48790;BME280;41718;51.980;5.734;2023-01-29T11:48:38;102467.63;;;2.55;100.00
48790;BME280;41718;51.980;5.734;2023-01-29T11:53:43;102461.44;;;2.63;100.00
48790;BME280;41718;51.980;5.734;2023-01-29T11:58:47;102444.44;;;2.63;100.00
48790;BME280;41718;51.980;5.734;2023-01-29T12:03:52;102435.97;;;2.64;100.00
48790;BME280;41718;51.980;5.734;2023-01-29T12:08:56;102428.31;;;2.64;100.00
48790;BME280;41718;51.980;5.734;2023-01-29T12:14:05;102424.97;;;2.65;100.00
48790;BME280;41718;51.980;5.734;2023-01-29T12:19:20;102424.53;;;2.71;100.00
48790;BME280;41718;51.980;5.734;2023-01-29T12:24:33;102420.44;;;2.73;100.00
48790;BME280;41718;51.980;5.734;2023-01-29T12:29:45;102410.22;;;2.73;100.00
48790;BME280;41718;51.980;5.734;2023-01-29T12:34:54;102396.13;;;2.78;100.00
48790;BME280;41718;51.980;5.734;2023-01-29T12:40:00;102384.97;;;2.78;100.00
48790;BME280;41718;51.980;5.734;2023-01-29T12:45:07;102361.00;;;2.76;100.00
48790;BME280;41718;51.980;5.734;2023-01-29T12:50:24;102361.88;;;2.76;100.00
48790;BME280;41718;51.980;5.734;2023-01-29T13:00:37;102342.88;;;2.84;100.00
48790;BME280;41718;51.980;5.734;2023-01-29T13:06:08;102329.31;;;2.85;100.00
48790;BME280;41718;51.980;5.734;2023-01-29T13:11:18;102319.75;;;2.83;100.00
48790;BME280;41718;51.980;5.734;2023-01-29T13:16:26;102304.69;;;2.74;100.00
48790;BME280;41718;51.980;5.734;2023-01-29T13:21:38;102293.22;;;2.81;100.00
48790;BME280;41718;51.980;5.734;2023-01-29T13:26:47;102291.34;;;2.78;100.00
48790;BME280;41718;51.980;5.734;2023-01-29T13:32:00;102277.66;;;2.78;100.00
48790;BME280;41718;51.980;5.734;2023-01-29T13:42:44;102258.00;;;2.77;100.00
48790;BME280;41718;51.980;5.734;2023-01-29T13:47:49;102241.00;;;2.77;100.00
48790;BME280;41718;51.980;5.734;2023-01-29T13:52:53;102241.31;;;2.82;100.00
48790;BME280;41718;51.980;5.734;2023-01-29T13:58:00;102225.53;;;2.87;100.00
48790;BME280;41718;51.980;5.734;2023-01-29T14:13:36;102229.38;;;2.94;100.00
48790;BME280;41718;51.980;5.734;2023-01-29T14:18:45;102222.59;;;2.95;100.00
48790;BME280;41718;51.980;5.734;2023-01-29T14:23:58;102222.81;;;2.98;100.00
48790;BME280;41718;51.980;5.734;2023-01-29T14:34:25;102214.94;;;2.95;100.00
48790;BME280;41718;51.980;5.734;2023-01-29T14:39:42;102213.47;;;2.98;100.00
48790;BME280;41718;51.980;5.734;2023-01-29T14:49:51;102210.75;;;2.95;100.00
48790;BME280;41718;51.980;5.734;2023-01-29T14:54:58;102202.38;;;2.98;100.00
48790;BME280;41718;51.980;5.734;2023-01-29T15:00:11;102210.59;;;2.93;100.00
48790;BME280;41718;51.980;5.734;2023-01-29T15:05:17;102188.31;;;2.91;100.00
48790;BME280;41718;51.980;5.734;2023-01-29T15:10:26;102179.94;;;2.93;100.00
48790;BME280;41718;51.980;5.734;2023-01-29T15:15:46;102172.28;;;2.93;100.00
48790;BME280;41718;51.980;5.734;2023-01-29T15:21:01;102164.59;;;2.93;100.00
48790;BME280;41718;51.980;5.734;2023-01-29T15:26:09;102167.06;;;2.92;100.00
48790;BME280;41718;51.980;5.734;2023-01-29T15:31:15;102167.16;;;2.93;100.00
48790;BME280;41718;51.980;5.734;2023-01-29T15:36:24;102147.31;;;2.89;100.00
48790;BME280;41718;51.980;5.734;2023-01-29T15:41:28;102148.88;;;2.87;100.00
48790;BME280;41718;51.980;5.734;2023-01-29T15:46:33;102143.56;;;2.84;100.00
48790;BME280;41718;51.980;5.734;2023-01-29T15:51:36;102142.78;;;2.85;100.00
48790;BME280;41718;51.980;5.734;2023-01-29T15:56:52;102127.13;;;2.81;100.00
48790;BME280;41718;51.980;5.734;2023-01-29T16:01:55;102133.34;;;2.84;100.00
48790;BME280;41718;51.980;5.734;2023-01-29T16:06:58;102129.69;;;2.81;100.00
48790;BME280;41718;51.980;5.734;2023-01-29T16:12:00;102131.28;;;2.79;100.00
48790;BME280;41718;51.980;5.734;2023-01-29T16:22:24;102137.41;;;2.69;100.00
48790;BME280;41718;51.980;5.734;2023-01-29T16:27:27;102124.34;;;2.64;100.00
48790;BME280;41718;51.980;5.734;2023-01-29T16:32:30;102135.34;;;2.63;100.00
48790;BME280;41718;51.980;5.734;2023-01-29T16:37:33;102133.25;;;2.58;100.00
48790;BME280;41718;51.980;5.734;2023-01-29T16:42:36;102116.06;;;2.55;100.00
48790;BME280;41718;51.980;5.734;2023-01-29T16:47:40;102121.44;;;2.47;100.00
48790;BME280;41718;51.980;5.734;2023-01-29T16:52:59;102118.47;;;2.41;100.00
48790;BME280;41718;51.980;5.734;2023-01-29T16:58:03;102113.72;;;2.33;100.00
48790;BME280;41718;51.980;5.734;2023-01-29T17:03:11;102107.41;;;2.28;100.00
48790;BME280;41718;51.980;5.734;2023-01-29T17:08:24;102095.13;;;2.23;100.00
48790;BME280;41718;51.980;5.734;2023-01-29T17:13:39;102098.44;;;2.22;100.00
48790;BME280;41718;51.980;5.734;2023-01-29T17:18:42;102103.75;;;2.25;100.00
48790;BME280;41718;51.980;5.734;2023-01-29T17:23:45;102103.97;;;2.28;100.00
48790;BME280;41718;51.980;5.734;2023-01-29T17:28:50;102106.72;;;2.31;100.00
48790;BME280;41718;51.980;5.734;2023-01-29T17:33:52;102095.44;;;2.27;100.00
48790;BME280;41718;51.980;5.734;2023-01-29T17:38:56;102087.09;;;2.30;100.00
48790;BME280;41718;51.980;5.734;2023-01-29T17:44:00;102073.44;;;2.29;100.00
48790;BME280;41718;51.980;5.734;2023-01-29T17:49:04;102078.72;;;2.32;100.00
48790;BME280;41718;51.980;5.734;2023-01-29T17:54:09;102076.19;;;2.32;100.00
48790;BME280;41718;51.980;5.734;2023-01-29T17:59:18;102065.97;;;2.32;100.00
48790;BME280;41718;51.980;5.734;2023-01-29T18:04:20;102052.72;;;2.38;100.00
48790;BME280;41718;51.980;5.734;2023-01-29T18:09:22;102047.16;;;2.44;100.00
48790;BME280;41718;51.980;5.734;2023-01-29T18:14:24;102045.69;;;2.47;100.00
48790;BME280;41718;51.980;5.734;2023-01-29T18:19:27;102023.69;;;2.49;100.00
48790;BME280;41718;51.980;5.734;2023-01-29T18:24:31;102029.00;;;2.52;100.00
48790;BME280;41718;51.980;5.734;2023-01-29T18:29:34;102011.22;;;2.54;100.00
48790;BME280;41718;51.980;5.734;2023-01-29T18:34:37;101997.78;;;2.56;100.00
48790;BME280;41718;51.980;5.734;2023-01-29T18:39:38;101992.78;;;2.58;100.00
48790;BME280;41718;51.980;5.734;2023-01-29T18:44:40;101987.09;;;2.62;100.00
48790;BME280;41718;51.980;5.734;2023-01-29T18:49:41;101975.22;;;2.62;100.00
48790;BME280;41718;51.980;5.734;2023-01-29T18:54:43;101965.47;;;2.70;100.00
48790;BME280;41718;51.980;5.734;2023-01-29T18:59:46;101956.63;;;2.65;100.00
48790;BME280;41718;51.980;5.734;2023-01-29T19:04:50;101934.31;;;2.76;100.00
48790;BME280;41718;51.980;5.734;2023-01-29T19:09:52;101936.59;;;2.71;100.00
48790;BME280;41718;51.980;5.734;2023-01-29T19:14:54;101940.81;;;2.71;100.00
48790;BME280;41718;51.980;5.734;2023-01-29T19:19:58;101916.06;;;2.70;100.00
48790;BME280;41718;51.980;5.734;2023-01-29T19:25:02;101895.84;;;2.73;100.00
48790;BME280;41718;51.980;5.734;2023-01-29T19:30:05;101893.38;;;2.74;100.00
48790;BME280;41718;51.980;5.734;2023-01-29T19:35:07;101890.91;;;2.76;100.00
48790;BME280;41718;51.980;5.734;2023-01-29T19:40:10;101874.97;;;2.80;100.00
48790;BME280;41718;51.980;5.734;2023-01-29T19:45:11;101869.00;;;2.79;100.00
48790;BME280;41718;51.980;5.734;2023-01-29T19:50:15;101880.19;;;2.81;100.00
48790;BME280;41718;51.980;5.734;2023-01-29T19:55:17;101865.06;;;2.84;100.00
48790;BME280;41718;51.980;5.734;2023-01-29T20:00:20;101873.47;;;2.83;100.00
48790;BME280;41718;51.980;5.734;2023-01-29T20:05:22;101879.75;;;2.88;100.00
48790;BME280;41718;51.980;5.734;2023-01-29T20:10:24;101858.66;;;2.91;100.00
48790;BME280;41718;51.980;5.734;2023-01-29T20:15:27;101863.75;;;2.91;100.00
48790;BME280;41718;51.980;5.734;2023-01-29T20:20:29;101866.47;;;2.94;100.00
48790;BME280;41718;51.980;5.734;2023-01-29T20:25:34;101847.53;;;2.90;100.00
48790;BME280;41718;51.980;5.734;2023-01-29T20:30:36;101833.38;;;2.96;100.00
48790;BME280;41718;51.980;5.734;2023-01-29T20:35:39;101844.28;;;2.93;100.00
48790;BME280;41718;51.980;5.734;2023-01-29T20:40:46;101853.91;;;2.97;100.00
48790;BME280;41718;51.980;5.734;2023-01-29T20:45:50;101834.56;;;3.01;100.00
48790;BME280;41718;51.980;5.734;2023-01-29T20:50:52;101834.63;;;3.02;100.00
48790;BME280;41718;51.980;5.734;2023-01-29T20:55:54;101832.16;;;3.04;100.00
48790;BME280;41718;51.980;5.734;2023-01-29T21:00:55;101844.84;;;3.02;100.00
48790;BME280;41718;51.980;5.734;2023-01-29T21:05:57;101838.94;;;3.03;100.00
48790;BME280;41718;51.980;5.734;2023-01-29T21:11:00;101841.59;;;3.05;100.00
48790;BME280;41718;51.980;5.734;2023-01-29T21:16:02;101822.16;;;3.07;100.00
48790;BME280;41718;51.980;5.734;2023-01-29T21:21:05;101825.06;;;3.13;100.00
48790;BME280;41718;51.980;5.734;2023-01-29T21:26:07;101818.16;;;3.12;100.00
48790;BME280;41718;51.980;5.734;2023-01-29T21:31:12;101830.94;;;3.12;100.00
48790;BME280;41718;51.980;5.734;2023-01-29T21:36:14;101829.66;;;3.18;100.00
48790;BME280;41718;51.980;5.734;2023-01-29T21:41:16;101824.13;;;3.26;100.00
48790;BME280;41718;51.980;5.734;2023-01-29T21:46:18;101826.75;;;3.27;100.00
48790;BME280;41718;51.980;5.734;2023-01-29T21:51:20;101827.66;;;3.28;100.00
48790;BME280;41718;51.980;5.734;2023-01-29T21:56:23;101814.19;;;3.30;100.00
48790;BME280;41718;51.980;5.734;2023-01-29T22:01:25;101808.44;;;3.34;100.00
48790;BME280;41718;51.980;5.734;2023-01-29T22:06:38;101768.31;;;3.33;100.00
48790;BME280;41718;51.980;5.734;2023-01-29T22:11:40;101734.28;;;3.34;100.00
48790;BME280;41718;51.980;5.734;2023-01-29T22:16:41;101712.69;;;3.29;100.00
48790;BME280;41718;51.980;5.734;2023-01-29T22:21:43;101700.06;;;3.32;100.00
48790;BME280;41718;51.980;5.734;2023-01-29T22:26:45;101685.47;;;3.30;100.00
48790;BME280;41718;51.980;5.734;2023-01-29T22:31:51;101719.72;;;3.33;100.00
48790;BME280;41718;51.980;5.734;2023-01-29T22:36:52;101702.72;;;3.34;100.00
48790;BME280;41718;51.980;5.734;2023-01-29T22:41:56;101695.16;;;3.35;100.00
48790;BME280;41718;51.980;5.734;2023-01-29T22:46:58;101683.50;;;3.40;100.00
48790;BME280;41718;51.980;5.734;2023-01-29T22:52:07;101670.72;;;3.40;100.00
48790;BME280;41718;51.980;5.734;2023-01-29T22:57:14;101657.28;;;3.44;100.00
48790;BME280;41718;51.980;5.734;2023-01-29T23:02:17;101636.75;;;3.43;100.00
48790;BME280;41718;51.980;5.734;2023-01-29T23:07:18;101660.19;;;3.51;100.00
48790;BME280;41718;51.980;5.734;2023-01-29T23:12:19;101621.94;;;3.52;100.00
48790;BME280;41718;51.980;5.734;2023-01-29T23:17:21;101648.63;;;3.57;100.00
48790;BME280;41718;51.980;5.734;2023-01-29T23:22:22;101650.66;;;3.63;100.00
48790;BME280;41718;51.980;5.734;2023-01-29T23:27:25;101626.19;;;3.68;100.00
48790;BME280;41718;51.980;5.734;2023-01-29T23:32:27;101621.19;;;3.69;100.00
48790;BME280;41718;51.980;5.734;2023-01-29T23:37:28;101619.03;;;3.77;100.00
48790;BME280;41718;51.980;5.734;2023-01-29T23:42:29;101594.66;;;3.84;100.00
48790;BME280;41718;51.980;5.734;2023-01-29T23:47:31;101576.13;;;3.88;100.00
48790;BME280;41718;51.980;5.734;2023-01-29T23:52:33;101559.25;;;3.91;100.00
48790;BME280;41718;51.980;5.734;2023-01-29T23:57:36;101548.38;;;3.95;100.00
